Time;durP1;ratioP1;P1;durP2;ratioP2;P2;SDS_P1;SDS_P2;PMS_P1;PMS_P2;Temp;Humidity;BMP_temperature;BMP_pressure;BME280_temperature;BME280_humidity;BME280_pressure;Samples;Min_cycle;Max_cycle;Signal;HPM_P1;HPM_P2
2023/08/13 00:01:37;;;;;;;;;;;17.60;76.10;;;;;;5069365;28;19912;-76
2023/08/13 00:04:03;;;;;;;;;;;17.60;76.20;;;;;;5070519;28;20363;-79
2023/08/13 00:06:29;;;;;;;;;;;17.60;76.20;;;;;;5052782;28;19920;-76
2023/08/13 00:08:54;;;;;;;;;;;17.60;76.20;;;;;;5069114;28;20083;-76
2023/08/13 00:11:20;;;;;;;;;;;17.60;76.20;;;;;;5052517;28;19923;-77
2023/08/13 00:13:46;;;;;;;;;;;17.60;76.20;;;;;;5069018;28;19932;-76
2023/08/13 00:16:11;;;;;;;;;;;17.60;76.20;;;;;;5068973;28;19962;-77
2023/08/13 00:18:37;;;;;;;;;;;17.60;76.20;;;;;;5070345;28;19908;-78
2023/08/13 00:21:02;;;;;;;;;;;17.50;76.20;;;;;;5069127;28;19912;-77
2023/08/13 00:23:28;;;;;;;;;;;17.50;76.20;;;;;;5068883;28;19920;-76
2023/08/13 00:25:54;;;;;;;;;;;17.60;76.20;;;;;;5068900;28;20369;-77
2023/08/13 00:28:19;;;;;;;;;;;17.50;76.10;;;;;;5070076;28;19919;-78
2023/08/13 00:30:45;;;;;;;;;;;17.50;76.10;;;;;;5070018;28;20349;-77
2023/08/13 00:33:10;;;;;;;;;;;17.50;76.00;;;;;;5068858;28;20003;-77
2023/08/13 00:35:36;;;;;;;;;;;17.40;75.90;;;;;;5069797;28;19920;-77
2023/08/13 00:38:01;;;;;;;;;;;17.30;76.00;;;;;;5068687;28;20360;-78
2023/08/13 00:40:27;;;;;;;;;;;17.20;76.00;;;;;;5070013;28;19909;-76
2023/08/13 00:42:53;;;;;;;;;;;17.10;76.00;;;;;;5069781;28;19936;-76
2023/08/13 00:45:19;;;;;;;;;;;17.00;76.00;;;;;;5069776;28;20003;-77
2023/08/13 00:47:45;;;;;;;;;;;16.90;76.10;;;;;;5069753;28;20306;-76
2023/08/13 00:50:11;;;;;;;;;;;16.90;76.20;;;;;;5068529;28;19909;-76
2023/08/13 00:52:36;;;;;;;;;;;16.80;76.20;;;;;;5069805;28;19916;-77
2023/08/13 00:55:02;;;;;;;;;;;16.80;76.40;;;;;;5068260;28;20315;-77
2023/08/13 00:57:28;;;;;;;;;;;16.80;76.40;;;;;;5068183;28;19920;-77
2023/08/13 00:59:54;;;;;;;;;;;16.90;76.40;;;;;;5068383;28;19913;-77
2023/08/13 01:02:21;;;;;;;;;;;17.00;76.40;;;;;;5068313;28;20284;-77
2023/08/13 01:04:46;;;;;;;;;;;17.10;76.40;;;;;;5068045;28;19929;-79
2023/08/13 01:07:24;;;;;;;;;;;17.10;76.20;;;;;;5069346;28;19919;-77
2023/08/13 01:10:09;;;;;;;;;;;17.10;76.10;;;;;;5068043;28;20455;-77
2023/08/13 01:12:47;;;;;;;;;;;17.10;76.10;;;;;;5069642;28;19908;-77
2023/08/13 01:15:15;;;;;;;;;;;17.00;76.10;;;;;;5069452;28;19935;-78
2023/08/13 01:17:42;;;;;;;;;;;17.00;76.20;;;;;;5070300;28;19909;-76
2023/08/13 01:20:08;;;;;;;;;;;17.00;76.30;;;;;;5069384;28;19931;-77
2023/08/13 01:22:37;;;;;;;;;;;17.00;76.40;;;;;;5069098;28;20329;-77
2023/08/13 01:25:03;;;;;;;;;;;17.00;76.40;;;;;;5069077;28;19959;-77
2023/08/13 01:27:39;;;;;;;;;;;17.10;76.30;;;;;;5067625;28;19917;-78
2023/08/13 01:30:08;;;;;;;;;;;17.10;76.30;;;;;;5067811;28;20380;-77
2023/08/13 01:32:36;;;;;;;;;;;17.10;76.30;;;;;;5069127;28;19913;-76
2023/08/13 01:35:02;;;;;;;;;;;17.10;76.20;;;;;;5068708;28;19924;-77
2023/08/13 01:37:28;;;;;;;;;;;17.10;76.20;;;;;;5068721;28;19931;-77
2023/08/13 01:39:54;;;;;;;;;;;17.10;76.20;;;;;;5068702;28;20276;-78
2023/08/13 01:42:19;;;;;;;;;;;17.00;76.00;;;;;;5068709;28;19909;-76
2023/08/13 01:44:45;;;;;;;;;;;17.00;76.00;;;;;;5067498;28;19912;-76
2023/08/13 01:47:11;;;;;;;;;;;16.80;76.00;;;;;;5050193;28;19935;-77
2023/08/13 01:49:36;;;;;;;;;;;16.70;76.00;;;;;;5067221;28;19913;-76
2023/08/13 01:52:02;;;;;;;;;;;16.60;76.10;;;;;;5067325;28;19916;-76
2023/08/13 01:54:27;;;;;;;;;;;16.60;76.20;;;;;;5067357;28;19916;-77
2023/08/13 01:56:53;;;;;;;;;;;16.50;76.20;;;;;;5068557;28;20319;-77
2023/08/13 01:59:18;;;;;;;;;;;16.50;76.30;;;;;;5067181;28;19917;-76
2023/08/13 02:01:44;;;;;;;;;;;16.40;76.30;;;;;;5067048;28;19912;-77
2023/08/13 02:04:09;;;;;;;;;;;16.40;76.20;;;;;;5067009;28;20418;-77
2023/08/13 02:06:36;;;;;;;;;;;16.30;76.20;;;;;;5068378;28;19916;-77
2023/08/13 02:09:02;;;;;;;;;;;16.30;76.40;;;;;;5066811;28;19919;-77
2023/08/13 02:11:28;;;;;;;;;;;16.30;76.40;;;;;;5066904;28;19931;-77
2023/08/13 02:13:54;;;;;;;;;;;16.30;76.40;;;;;;5066794;28;20377;-76
2023/08/13 02:16:19;;;;;;;;;;;16.30;76.40;;;;;;5066773;28;19913;-77
2023/08/13 02:18:45;;;;;;;;;;;16.40;76.50;;;;;;5066933;28;19909;-77
2023/08/13 02:21:10;;;;;;;;;;;16.50;77.00;;;;;;5050267;28;19913;-76
2023/08/13 02:23:36;;;;;;;;;;;16.50;76.40;;;;;;5067030;28;19912;-77
2023/08/13 02:26:01;;;;;;;;;;;16.60;76.40;;;;;;5066834;28;20395;-77
2023/08/13 02:28:27;;;;;;;;;;;16.70;76.40;;;;;;5049983;28;19913;-77
2023/08/13 02:30:53;;;;;;;;;;;16.80;76.40;;;;;;5066726;28;19912;-77
2023/08/13 02:33:18;;;;;;;;;;;16.80;76.30;;;;;;5066902;28;19921;-77
2023/08/13 02:35:44;;;;;;;;;;;16.90;76.30;;;;;;5067935;28;19920;-77
2023/08/13 02:38:09;;;;;;;;;;;16.90;76.30;;;;;;5050016;28;20286;-77
2023/08/13 02:40:35;;;;;;;;;;;17.00;76.30;;;;;;5067983;28;20349;-77
2023/08/13 02:43:01;;;;;;;;;;;17.00;76.30;;;;;;5068093;28;19961;-77
2023/08/13 02:45:27;;;;;;;;;;;17.00;76.30;;;;;;5066526;28;20004;-77
2023/08/13 02:47:53;;;;;;;;;;;17.00;76.20;;;;;;5050017;28;20020;-76
2023/08/13 02:50:18;;;;;;;;;;;17.00;76.20;;;;;;5066451;28;20389;-77
2023/08/13 02:52:44;;;;;;;;;;;16.90;76.20;;;;;;5066425;28;19913;-77
2023/08/13 02:55:10;;;;;;;;;;;16.90;76.30;;;;;;5072847;28;20151;-77
2023/08/13 02:57:35;;;;;;;;;;;16.90;76.30;;;;;;5067904;28;19912;-77
2023/08/13 03:00:01;;;;;;;;;;;16.90;76.30;;;;;;5071845;28;19912;-72
2023/08/13 03:02:26;;;;;;;;;;;16.90;76.20;;;;;;5071955;28;19919;-77
2023/08/13 03:04:52;;;;;;;;;;;16.90;76.20;;;;;;5071662;28;19925;-77
2023/08/13 03:07:17;;;;;;;;;;;16.80;76.20;;;;;;5070343;28;19959;-77
2023/08/13 03:09:43;;;;;;;;;;;16.70;76.20;;;;;;5053837;28;19995;-77
2023/08/13 03:12:08;;;;;;;;;;;16.70;76.30;;;;;;5071764;28;19924;-77
2023/08/13 03:14:34;;;;;;;;;;;16.60;76.40;;;;;;5071617;28;20356;-77
2023/08/13 03:17:00;;;;;;;;;;;16.70;76.50;;;;;;5053665;28;19912;-77
2023/08/13 03:19:25;;;;;;;;;;;16.70;76.50;;;;;;5053399;28;20076;-76
2023/08/13 03:21:51;;;;;;;;;;;16.70;76.40;;;;;;5071557;28;20015;-77
2023/08/13 03:24:16;;;;;;;;;;;16.80;76.50;;;;;;5070195;28;19917;-77
2023/08/13 03:26:42;;;;;;;;;;;16.80;76.40;;;;;;5071496;28;19956;-76
2023/08/13 03:29:07;;;;;;;;;;;16.80;76.40;;;;;;5070098;28;19916;-77
2023/08/13 03:31:33;;;;;;;;;;;16.80;76.30;;;;;;5071404;28;20003;-77
2023/08/13 03:33:58;;;;;;;;;;;16.80;76.30;;;;;;5071067;28;19922;-77
2023/08/13 03:36:24;;;;;;;;;;;16.80;76.30;;;;;;5053286;28;19965;-76
2023/08/13 03:38:49;;;;;;;;;;;16.90;76.30;;;;;;5071130;28;19917;-78
2023/08/13 03:41:15;;;;;;;;;;;16.90;76.30;;;;;;5071263;28;19913;-77
2023/08/13 03:43:41;;;;;;;;;;;16.80;76.20;;;;;;5069885;28;20003;-77
2023/08/13 03:46:06;;;;;;;;;;;16.80;76.20;;;;;;5053177;28;20322;-77
2023/08/13 03:48:32;;;;;;;;;;;16.80;76.20;;;;;;5069494;28;19920;-76
2023/08/13 03:50:58;;;;;;;;;;;16.80;76.20;;;;;;5071059;28;19951;-75
2023/08/13 03:53:24;;;;;;;;;;;16.70;76.20;;;;;;5070830;28;20372;-77
2023/08/13 03:55:50;;;;;;;;;;;16.60;76.20;;;;;;5070816;28;20285;-76
2023/08/13 03:58:16;;;;;;;;;;;16.60;76.30;;;;;;5070850;28;19909;-76
2023/08/13 04:00:42;;;;;;;;;;;16.60;76.40;;;;;;5070796;28;19981;-77
2023/08/13 04:03:09;;;;;;;;;;;16.60;76.40;;;;;;5069431;28;19909;-77
2023/08/13 04:05:35;;;;;;;;;;;16.60;76.40;;;;;;5070557;28;19964;-77
2023/08/13 04:08:00;;;;;;;;;;;16.60;76.40;;;;;;5052614;28;20006;-77
2023/08/13 04:10:26;;;;;;;;;;;16.60;76.50;;;;;;5070118;28;20015;-77
2023/08/13 04:12:52;;;;;;;;;;;16.70;76.50;;;;;;5069295;28;19919;-77
2023/08/13 04:15:18;;;;;;;;;;;16.70;76.50;;;;;;5070358;28;19924;-77
2023/08/13 04:17:43;;;;;;;;;;;16.70;76.40;;;;;;5052309;28;19912;-77
2023/08/13 04:20:10;;;;;;;;;;;16.60;76.40;;;;;;5069213;28;20252;-77
2023/08/13 04:22:35;;;;;;;;;;;16.70;76.50;;;;;;5070474;28;19913;-77
2023/08/13 04:25:01;;;;;;;;;;;16.60;76.40;;;;;;5070414;28;19916;-77
2023/08/13 04:27:27;;;;;;;;;;;16.60;76.40;;;;;;5070238;28;19913;-77
2023/08/13 04:29:52;;;;;;;;;;;16.60;76.40;;;;;;5073487;28;19966;-78
2023/08/13 04:32:18;;;;;;;;;;;16.70;76.50;;;;;;5052090;28;19916;-76
2023/08/13 04:34:43;;;;;;;;;;;16.70;76.40;;;;;;5068927;28;19917;-77
2023/08/13 04:37:09;;;;;;;;;;;16.70;76.50;;;;;;5068701;28;19916;-77
2023/08/13 04:39:34;;;;;;;;;;;16.70;76.50;;;;;;5070026;28;19916;-77
2023/08/13 04:42:00;;;;;;;;;;;16.70;76.40;;;;;;5070024;28;19952;-77
2023/08/13 04:44:26;;;;;;;;;;;16.70;76.40;;;;;;5052025;28;19924;-77
2023/08/13 04:46:51;;;;;;;;;;;16.60;76.40;;;;;;5068825;28;19927;-77
2023/08/13 04:49:17;;;;;;;;;;;16.70;76.50;;;;;;5068422;28;19960;-77
2023/08/13 04:51:42;;;;;;;;;;;16.60;76.40;;;;;;5069717;28;19978;-77
2023/08/13 04:54:08;;;;;;;;;;;16.70;76.50;;;;;;5068473;28;20007;-77
2023/08/13 04:56:33;;;;;;;;;;;16.60;76.40;;;;;;5069769;28;19917;-77
2023/08/13 04:58:59;;;;;;;;;;;16.70;76.50;;;;;;5069635;28;20039;-77
2023/08/13 05:01:24;;;;;;;;;;;16.60;76.40;;;;;;5068623;28;19920;-77
2023/08/13 05:03:50;;;;;;;;;;;16.70;76.50;;;;;;5067898;28;19972;-77
2023/08/13 05:06:16;;;;;;;;;;;16.70;76.50;;;;;;5069486;28;19912;-78
2023/08/13 05:08:41;;;;;;;;;;;16.70;76.60;;;;;;5067884;28;19917;-77
2023/08/13 05:11:07;;;;;;;;;;;16.70;76.60;;;;;;5051129;28;20398;-77
2023/08/13 05:13:33;;;;;;;;;;;16.70;76.50;;;;;;5067632;28;19909;-76
2023/08/13 05:15:59;;;;;;;;;;;16.70;76.50;;;;;;5069036;28;19916;-77
2023/08/13 05:18:24;;;;;;;;;;;16.70;76.50;;;;;;5067465;28;19966;-77
2023/08/13 05:20:50;;;;;;;;;;;16.70;76.60;;;;;;5067961;28;19916;-77
2023/08/13 05:23:16;;;;;;;;;;;16.70;76.60;;;;;;5068918;28;19982;-77
2023/08/13 05:25:41;;;;;;;;;;;16.70;76.50;;;;;;5067335;28;19967;-77
2023/08/13 05:28:07;;;;;;;;;;;16.70;76.50;;;;;;5067366;28;19912;-76
2023/08/13 05:30:34;;;;;;;;;;;16.70;76.50;;;;;;5067313;28;19912;-77
2023/08/13 05:33:00;;;;;;;;;;;16.80;76.60;;;;;;5067349;28;19916;-77
2023/08/13 05:35:25;;;;;;;;;;;16.80;76.50;;;;;;5068764;28;19920;-77
2023/08/13 05:37:51;;;;;;;;;;;16.80;76.60;;;;;;5067516;28;20376;-77
2023/08/13 05:40:16;;;;;;;;;;;16.80;76.60;;;;;;5068988;28;19919;-77
2023/08/13 05:42:42;;;;;;;;;;;16.80;77.00;;;;;;5068718;28;19920;-77
2023/08/13 05:45:08;;;;;;;;;;;16.90;76.60;;;;;;5067473;28;19912;-77
2023/08/13 05:47:33;;;;;;;;;;;16.80;76.50;;;;;;5050714;28;19989;-77
2023/08/13 05:49:59;;;;;;;;;;;16.90;76.60;;;;;;5067328;28;19934;-77
2023/08/13 05:52:25;;;;;;;;;;;16.90;76.60;;;;;;5067304;28;20372;-77
2023/08/13 05:54:50;;;;;;;;;;;17.00;76.60;;;;;;5050652;28;20389;-77
2023/08/13 05:57:16;;;;;;;;;;;17.00;76.60;;;;;;5067151;28;20007;-77
2023/08/13 05:59:42;;;;;;;;;;;17.00;76.50;;;;;;5066935;28;19924;-77
2023/08/13 06:02:07;;;;;;;;;;;17.10;76.50;;;;;;5067025;28;19912;-77
2023/08/13 06:04:34;;;;;;;;;;;17.10;76.40;;;;;;5067122;28;20266;-77
2023/08/13 06:07:01;;;;;;;;;;;17.10;76.40;;;;;;5067811;28;20349;-77
2023/08/13 06:09:27;;;;;;;;;;;17.20;76.50;;;;;;5066844;28;19912;-77
2023/08/13 06:11:52;;;;;;;;;;;17.30;76.50;;;;;;5068488;28;19917;-77
2023/08/13 06:14:18;;;;;;;;;;;17.40;76.50;;;;;;5067082;28;19971;-77
2023/08/13 06:16:43;;;;;;;;;;;17.40;76.40;;;;;;5068634;28;20007;-77
2023/08/13 06:19:09;;;;;;;;;;;17.50;76.50;;;;;;5066883;28;20012;-77
2023/08/13 06:21:35;;;;;;;;;;;17.50;76.50;;;;;;5066928;28;19919;-77
2023/08/13 06:24:00;;;;;;;;;;;17.50;76.90;;;;;;5066912;28;20417;-77
2023/08/13 06:26:26;;;;;;;;;;;17.60;76.50;;;;;;5066663;28;20035;-77
2023/08/13 06:28:51;;;;;;;;;;;17.60;76.50;;;;;;5067994;28;19958;-77
2023/08/13 06:31:17;;;;;;;;;;;17.50;76.40;;;;;;5067940;28;19917;-78
2023/08/13 06:33:42;;;;;;;;;;;17.50;76.40;;;;;;5066398;28;19973;-77
2023/08/13 06:36:08;;;;;;;;;;;17.60;76.60;;;;;;5050016;28;20417;-77
2023/08/13 06:38:34;;;;;;;;;;;17.60;76.50;;;;;;5066498;28;20287;-77
2023/08/13 06:41:03;;;;;;;;;;;17.60;77.00;;;;;;5067824;28;19963;-77
2023/08/13 06:43:28;;;;;;;;;;;17.60;76.50;;;;;;5066431;28;20372;-77
2023/08/13 06:45:54;;;;;;;;;;;17.60;76.50;;;;;;5067750;28;19927;-77
2023/08/13 06:48:20;;;;;;;;;;;17.60;76.50;;;;;;5067481;28;19959;-77
2023/08/13 06:50:48;;;;;;;;;;;17.50;76.50;;;;;;5049692;28;20333;-77
2023/08/13 06:53:14;;;;;;;;;;;17.60;76.60;;;;;;5066350;28;20333;-77
2023/08/13 06:55:39;;;;;;;;;;;17.60;76.60;;;;;;5066274;28;20224;-77
2023/08/13 06:58:05;;;;;;;;;;;17.60;76.60;;;;;;5066241;28;19912;-77
2023/08/13 07:00:30;;;;;;;;;;;17.70;76.60;;;;;;5067418;28;20007;-76
2023/08/13 07:02:56;;;;;;;;;;;17.70;76.60;;;;;;5066514;28;19999;-77
2023/08/13 07:05:22;;;;;;;;;;;17.80;76.70;;;;;;5066044;28;19928;-77
2023/08/13 07:07:49;;;;;;;;;;;17.90;76.70;;;;;;5067576;28;19962;-77
2023/08/13 07:10:14;;;;;;;;;;;18.10;76.70;;;;;;5066287;28;20023;-80
2023/08/13 07:12:40;;;;;;;;;;;18.30;76.60;;;;;;5067354;28;20040;-79
2023/08/13 07:15:05;;;;;;;;;;;18.40;76.50;;;;;;5066051;28;19966;-78
2023/08/13 07:17:31;;;;;;;;;;;18.40;76.30;;;;;;5067319;28;20364;-79
2023/08/13 07:19:56;;;;;;;;;;;18.50;76.30;;;;;;5065952;28;19913;-77
2023/08/13 07:22:22;;;;;;;;;;;18.60;76.40;;;;;;5066054;28;19926;-77
2023/08/13 07:24:48;;;;;;;;;;;18.70;76.30;;;;;;5067417;28;19973;-77
2023/08/13 07:27:13;;;;;;;;;;;18.80;76.30;;;;;;5067225;28;19913;-77
2023/08/13 07:29:39;;;;;;;;;;;19.00;76.30;;;;;;5065682;28;19920;-77
2023/08/13 07:32:04;;;;;;;;;;;19.10;76.20;;;;;;5065798;28;20010;-77
2023/08/13 07:34:30;;;;;;;;;;;19.30;76.20;;;;;;5067140;28;19927;-77
2023/08/13 07:36:55;;;;;;;;;;;19.30;76.20;;;;;;5066237;28;19913;-78
2023/08/13 07:39:22;;;;;;;;;;;19.50;76.40;;;;;;5065558;28;20034;-77
2023/08/13 07:41:49;;;;;;;;;;;19.90;76.50;;;;;;5053477;28;19912;-77
2023/08/13 07:44:15;;;;;;;;;;;20.40;76.50;;;;;;5074322;28;19920;-78
2023/08/13 07:46:41;;;;;;;;;;;21.20;76.60;;;;;;5069697;28;20002;-77
2023/08/13 07:49:07;;;;;;;;;;;22.30;76.30;;;;;;5070615;28;20008;-76
2023/08/13 07:51:33;;;;;;;;;;;23.20;75.40;;;;;;5070619;28;19955;-78
2023/08/13 07:53:59;;;;;;;;;;;23.90;75.00;;;;;;5070562;28;20353;-77
2023/08/13 07:56:24;;;;;;;;;;;24.80;74.70;;;;;;5070752;28;19928;-78
2023/08/13 07:58:50;;;;;;;;;;;25.50;74.10;;;;;;5069303;28;20273;-78
2023/08/13 08:01:16;;;;;;;;;;;25.60;73.80;;;;;;5052458;28;19975;-77
2023/08/13 08:03:41;;;;;;;;;;;25.40;73.20;;;;;;5070062;28;19920;-77
2023/08/13 08:06:07;;;;;;;;;;;25.10;73.80;;;;;;5070290;28;20385;-77
2023/08/13 08:08:32;;;;;;;;;;;24.90;73.90;;;;;;5070387;28;19919;-77
2023/08/13 08:10:58;;;;;;;;;;;24.50;74.00;;;;;;5069027;28;19916;-77
2023/08/13 08:13:24;;;;;;;;;;;24.20;74.50;;;;;;5070370;28;19912;-78
2023/08/13 08:15:49;;;;;;;;;;;23.80;74.60;;;;;;5068629;28;19993;-78
2023/08/13 08:18:15;;;;;;;;;;;23.50;75.10;;;;;;5052333;28;19916;-77
2023/08/13 08:20:40;;;;;;;;;;;23.30;75.40;;;;;;5070069;28;19912;-77
2023/08/13 08:23:06;;;;;;;;;;;23.10;75.30;;;;;;5070246;28;20361;-77
2023/08/13 08:25:31;;;;;;;;;;;22.90;75.40;;;;;;5069137;28;20040;-77
2023/08/13 08:27:57;;;;;;;;;;;22.70;75.70;;;;;;5070010;28;20025;-76
2023/08/13 08:30:23;;;;;;;;;;;23.40;77.40;;;;;;5070104;28;19919;-78
2023/08/13 08:32:48;;;;;;;;;;;24.50;77.10;;;;;;5069966;28;19920;-78
2023/08/13 08:35:14;;;;;;;;;;;25.50;76.40;;;;;;5068741;28;19917;-77
2023/08/13 08:37:39;;;;;;;;;;;26.60;76.20;;;;;;5070061;28;19909;-78
2023/08/13 08:40:06;;;;;;;;;;;27.20;75.40;;;;;;5068586;28;19913;-78
2023/08/13 08:42:31;;;;;;;;;;;27.70;75.30;;;;;;5051771;28;20299;-79
2023/08/13 08:44:58;;;;;;;;;;;28.10;75.10;;;;;;5068573;28;19913;-78
2023/08/13 08:47:24;;;;;;;;;;;28.60;75.40;;;;;;5069380;28;20322;-77
2023/08/13 08:49:51;;;;;;;;;;;28.90;75.20;;;;;;5068319;28;19919;-77
2023/08/13 08:52:17;;;;;;;;;;;29.40;75.60;;;;;;5069709;28;19909;-78
2023/08/13 08:54:43;;;;;;;;;;;30.00;75.80;;;;;;5069136;28;20281;-77
2023/08/13 08:57:08;;;;;;;;;;;30.70;76.00;;;;;;5069224;28;19947;-78
2023/08/13 08:59:34;;;;;;;;;;;31.10;75.90;;;;;;5067545;28;19966;-79
2023/08/13 09:02:00;;;;;;;;;;;31.30;75.40;;;;;;5068072;28;19962;-78
2023/08/13 09:04:26;;;;;;;;;;;31.70;75.80;;;;;;5068893;28;19928;-78
2023/08/13 09:06:55;;;;;;;;;;;32.10;75.90;;;;;;5051045;28;20292;-78
2023/08/13 09:09:22;;;;;;;;;;;31.80;75.00;;;;;;5069405;28;20283;-78
2023/08/13 09:11:48;;;;;;;;;;;30.90;74.50;;;;;;5067595;28;19913;-77
2023/08/13 09:14:14;;;;;;;;;;;30.00;75.10;;;;;;5068958;28;19920;-77
2023/08/13 09:16:51;;;;;;;;;;;29.30;75.40;;;;;;5069668;28;19916;-77
2023/08/13 09:19:17;;;;;;;;;;;29.00;75.70;;;;;;5069101;28;19908;-78
2023/08/13 09:21:50;;;;;;;;;;;28.90;76.60;;;;;;5068876;28;20400;-77
2023/08/13 09:24:16;;;;;;;;;;;29.10;76.60;;;;;;5068859;28;19919;-78
2023/08/13 09:26:41;;;;;;;;;;;28.50;75.40;;;;;;5067233;28;20003;-77
2023/08/13 09:29:07;;;;;;;;;;;27.90;76.30;;;;;;5068454;28;20002;-77
2023/08/13 09:31:33;;;;;;;;;;;27.90;76.70;;;;;;5067307;28;19915;-77
2023/08/13 09:33:59;;;;;;;;;;;27.40;75.70;;;;;;5068260;28;19920;-76
2023/08/13 09:36:24;;;;;;;;;;;26.70;76.20;;;;;;5067079;28;19912;-78
2023/08/13 09:38:51;;;;;;;;;;;26.10;75.90;;;;;;5068274;28;19931;-77
2023/08/13 09:41:17;;;;;;;;;;;25.90;76.90;;;;;;5068016;28;19909;-78
2023/08/13 09:43:44;;;;;;;;;;;25.90;76.90;;;;;;5067029;28;20266;-77
2023/08/13 09:46:11;;;;;;;;;;;26.20;77.20;;;;;;5066669;28;20336;-67
2023/08/13 09:48:38;;;;;;;;;;;26.80;77.90;;;;;;5067908;28;20029;-77
2023/08/13 09:51:04;;;;;;;;;;;27.70;78.00;;;;;;5067843;28;19909;-77
2023/08/13 09:53:31;;;;;;;;;;;28.30;76.80;;;;;;5067515;28;20351;-77
2023/08/13 09:56:00;;;;;;;;;;;28.50;77.00;;;;;;5066432;28;19917;-78
2023/08/13 09:58:26;;;;;;;;;;;28.90;77.10;;;;;;5067533;28;19913;-78
2023/08/13 10:00:52;;;;;;;;;;;29.20;77.10;;;;;;5067729;28;19919;-78
2023/08/13 10:03:18;;;;;;;;;;;29.80;77.50;;;;;;5066363;28;19917;-78
2023/08/13 10:05:44;;;;;;;;;;;30.40;77.30;;;;;;5067877;28;19912;-78
2023/08/13 10:08:10;;;;;;;;;;;30.70;76.80;;;;;;5065791;28;20285;-78
2023/08/13 10:10:36;;;;;;;;;;;30.90;76.50;;;;;;5065173;28;20335;-78
2023/08/13 10:13:02;;;;;;;;;;;31.10;77.20;;;;;;5066557;28;19913;-78
2023/08/13 10:15:28;;;;;;;;;;;31.30;76.80;;;;;;5067836;28;19912;-76
2023/08/13 10:17:54;;;;;;;;;;;30.90;76.20;;;;;;5066435;28;20022;-77
2023/08/13 10:20:19;;;;;;;;;;;30.00;75.20;;;;;;5049771;28;19959;-77
2023/08/13 10:22:46;;;;;;;;;;;28.90;74.60;;;;;;5066527;28;20527;-78
2023/08/13 10:25:25;;;;;;;;;;;27.60;74.50;;;;;;5067585;28;19909;-78
2023/08/13 10:27:52;;;;;;;;;;;26.40;74.80;;;;;;5066230;28;19913;-76
2023/08/13 10:30:17;;;;;;;;;;;25.40;75.50;;;;;;5067540;28;19908;-77
2023/08/13 10:32:49;;;;;;;;;;;24.80;75.90;;;;;;5066015;28;19919;-77
2023/08/13 10:35:34;;;;;;;;;;;24.50;76.90;;;;;;5066784;28;19924;-77
2023/08/13 10:38:01;;;;;;;;;;;24.70;77.70;;;;;;5065609;28;19917;-77
2023/08/13 10:40:27;;;;;;;;;;;25.10;77.70;;;;;;5067020;28;19909;-77
2023/08/13 10:42:54;;;;;;;;;;;25.40;77.00;;;;;;5067475;28;19924;-76
2023/08/13 10:45:21;;;;;;;;;;;25.30;76.30;;;;;;5067594;28;19916;-76
2023/08/13 10:47:52;;;;;;;;;;;25.10;76.00;;;;;;5065996;28;19953;-77
2023/08/13 10:50:22;;;;;;;;;;;24.80;76.00;;;;;;5067360;28;20353;-77
2023/08/13 10:52:54;;;;;;;;;;;24.40;75.90;;;;;;5066870;28;19980;-76
2023/08/13 10:55:23;;;;;;;;;;;24.10;76.20;;;;;;5067638;28;19969;-77
2023/08/13 10:57:49;;;;;;;;;;;23.80;76.20;;;;;;5065489;28;19913;-77
2023/08/13 11:00:15;;;;;;;;;;;23.50;76.20;;;;;;5067281;28;19912;-77
2023/08/13 11:02:43;;;;;;;;;;;23.30;76.50;;;;;;5066058;28;19912;-77
2023/08/13 11:05:09;;;;;;;;;;;23.30;76.80;;;;;;5065813;28;19974;-77
2023/08/13 11:07:35;;;;;;;;;;;23.50;77.00;;;;;;5066893;28;20325;-77
2023/08/13 11:10:02;;;;;;;;;;;23.70;76.70;;;;;;5067038;28;20154;-76
2023/08/13 11:12:28;;;;;;;;;;;23.90;76.30;;;;;;5067119;28;19936;-76
2023/08/13 11:14:54;;;;;;;;;;;24.10;76.40;;;;;;5066632;28;19966;-77
2023/08/13 11:17:19;;;;;;;;;;;24.20;76.10;;;;;;5066867;28;19951;-77
2023/08/13 11:19:45;;;;;;;;;;;24.30;76.00;;;;;;5067998;28;19917;-77
2023/08/13 11:22:10;;;;;;;;;;;24.60;76.40;;;;;;5069704;28;20373;-77
2023/08/13 11:24:36;;;;;;;;;;;25.10;76.80;;;;;;5053109;28;19913;-77
2023/08/13 11:27:02;;;;;;;;;;;26.00;77.30;;;;;;5070718;28;19909;-78
2023/08/13 11:29:28;;;;;;;;;;;26.50;76.70;;;;;;5069142;28;19912;-77
2023/08/13 11:31:53;;;;;;;;;;;26.70;76.20;;;;;;5069630;28;19919;-77
2023/08/13 11:34:19;;;;;;;;;;;26.60;75.90;;;;;;5069137;28;19923;-77
2023/08/13 11:36:45;;;;;;;;;;;26.50;75.80;;;;;;5069459;28;20027;-78
2023/08/13 11:39:11;;;;;;;;;;;26.60;76.40;;;;;;5070672;28;19913;-77
2023/08/13 11:41:37;;;;;;;;;;;26.80;76.50;;;;;;5069079;28;19940;-77
2023/08/13 11:44:03;;;;;;;;;;;26.90;76.00;;;;;;5068844;28;19916;-77
2023/08/13 11:46:48;;;;;;;;;;;26.80;75.80;;;;;;5070162;28;20288;-77
2023/08/13 11:49:15;;;;;;;;;;;26.70;76.10;;;;;;5070099;28;19943;-78
2023/08/13 11:51:41;;;;;;;;;;;26.80;76.50;;;;;;5070902;28;19919;-77
2023/08/13 11:54:08;;;;;;;;;;;27.00;76.80;;;;;;5068703;28;19912;-79
2023/08/13 11:56:34;;;;;;;;;;;27.30;76.80;;;;;;5069972;28;19909;-79
2023/08/13 11:58:59;;;;;;;;;;;27.80;77.40;;;;;;5068823;28;19928;-78
2023/08/13 12:01:25;;;;;;;;;;;28.30;77.40;;;;;;5070056;28;20106;-79
2023/08/13 12:03:50;;;;;;;;;;;28.40;76.40;;;;;;5069823;28;20010;-78
2023/08/13 12:06:16;;;;;;;;;;;28.30;76.30;;;;;;5068478;28;19980;-78
2023/08/13 12:08:45;;;;;;;;;;;28.00;75.70;;;;;;5068729;28;19916;-79
2023/08/13 12:11:11;;;;;;;;;;;27.50;75.60;;;;;;5068486;28;20399;-78
2023/08/13 12:13:45;;;;;;;;;;;27.00;75.60;;;;;;5069051;28;19913;-77
2023/08/13 12:16:10;;;;;;;;;;;26.50;75.50;;;;;;5070840;28;19920;-75
2023/08/13 12:18:36;;;;;;;;;;;26.00;75.70;;;;;;5068556;28;19982;-78
2023/08/13 12:21:02;;;;;;;;;;;25.80;76.20;;;;;;5070304;28;19909;-79
2023/08/13 12:23:28;;;;;;;;;;;25.70;76.40;;;;;;5070579;28;20048;-77
2023/08/13 12:25:54;;;;;;;;;;;25.90;76.70;;;;;;5069728;28;20043;-78
2023/08/13 12:28:19;;;;;;;;;;;26.10;76.80;;;;;;5067919;28;19954;-77
2023/08/13 12:30:45;;;;;;;;;;;26.50;76.80;;;;;;5069131;28;19912;-78
2023/08/13 12:33:10;;;;;;;;;;;26.60;76.30;;;;;;5073006;28;19913;-79
2023/08/13 12:35:36;;;;;;;;;;;26.50;76.10;;;;;;5072066;28;20389;-78
2023/08/13 12:38:02;;;;;;;;;;;26.50;76.10;;;;;;5069720;28;19931;-80
2023/08/13 12:40:27;;;;;;;;;;;26.50;76.30;;;;;;5069571;28;19919;-78
2023/08/13 12:42:53;;;;;;;;;;;26.80;77.00;;;;;;5069643;28;19920;-79
2023/08/13 12:45:19;;;;;;;;;;;27.30;77.40;;;;;;5069276;28;20363;-77
2023/08/13 12:47:44;;;;;;;;;;;27.70;77.10;;;;;;5069085;28;20015;-77
2023/08/13 12:50:10;;;;;;;;;;;27.60;76.20;;;;;;5068088;28;19924;-78
2023/08/13 12:52:35;;;;;;;;;;;27.30;76.00;;;;;;5069421;28;19920;-78
2023/08/13 12:55:01;;;;;;;;;;;26.90;75.70;;;;;;5069124;28;19966;-78
2023/08/13 12:57:27;;;;;;;;;;;26.60;75.90;;;;;;5067578;28;19912;-78
2023/08/13 12:59:53;;;;;;;;;;;26.30;75.90;;;;;;5069119;28;19909;-78
2023/08/13 13:02:19;;;;;;;;;;;26.10;76.00;;;;;;5068921;28;19939;-78
2023/08/13 13:04:45;;;;;;;;;;;26.10;76.80;;;;;;5068610;28;19924;-78
2023/08/13 13:07:11;;;;;;;;;;;26.60;77.60;;;;;;5068709;28;19913;-77
2023/08/13 13:09:37;;;;;;;;;;;27.00;77.30;;;;;;5068542;28;19917;-77
2023/08/13 13:12:02;;;;;;;;;;;27.00;76.80;;;;;;5067054;28;19935;-78
2023/08/13 13:14:28;;;;;;;;;;;26.80;76.30;;;;;;5067261;28;19920;-78
2023/08/13 13:16:54;;;;;;;;;;;26.50;76.10;;;;;;5067679;28;19908;-78
2023/08/13 13:19:19;;;;;;;;;;;26.30;76.50;;;;;;5068568;28;19967;-78
2023/08/13 13:21:46;;;;;;;;;;;26.30;76.70;;;;;;5068345;28;19919;-77
2023/08/13 13:24:11;;;;;;;;;;;26.20;76.30;;;;;;5067209;28;19932;-78
2023/08/13 13:26:37;;;;;;;;;;;26.10;76.10;;;;;;5068659;28;19908;-78
2023/08/13 13:29:04;;;;;;;;;;;26.10;76.50;;;;;;5068310;28;19920;-78
2023/08/13 13:31:29;;;;;;;;;;;26.10;76.40;;;;;;5068563;28;19944;-79
2023/08/13 13:33:55;;;;;;;;;;;26.20;76.50;;;;;;5066804;28;20343;-77
2023/08/13 13:36:21;;;;;;;;;;;26.20;76.20;;;;;;5066408;28;20411;-76
2023/08/13 13:38:46;;;;;;;;;;;26.10;76.10;;;;;;5067317;28;19986;-77
2023/08/13 13:41:12;;;;;;;;;;;25.90;76.00;;;;;;5066646;28;20373;-78
2023/08/13 13:43:37;;;;;;;;;;;25.90;76.30;;;;;;5068061;28;20403;-79
2023/08/13 13:46:03;;;;;;;;;;;26.00;76.50;;;;;;5067355;28;20285;-78
2023/08/13 13:48:28;;;;;;;;;;;26.10;76.40;;;;;;5068145;28;19923;-78
2023/08/13 13:50:54;;;;;;;;;;;26.00;76.20;;;;;;5066802;28;19916;-78
2023/08/13 13:53:19;;;;;;;;;;;26.00;76.20;;;;;;5066875;28;19913;-78
2023/08/13 13:55:45;;;;;;;;;;;25.90;76.10;;;;;;5067935;28;20365;-78
2023/08/13 13:58:11;;;;;;;;;;;25.80;75.90;;;;;;5067898;28;19916;-78
2023/08/13 14:00:36;;;;;;;;;;;25.50;75.60;;;;;;5067715;28;20028;-78
2023/08/13 14:03:02;;;;;;;;;;;25.30;75.60;;;;;;5066743;28;19909;-78
2023/08/13 14:05:27;;;;;;;;;;;25.20;75.80;;;;;;5068180;28;19981;-78
2023/08/13 14:07:53;;;;;;;;;;;25.20;76.40;;;;;;5067620;28;19912;-78
2023/08/13 14:10:19;;;;;;;;;;;25.30;76.20;;;;;;5068323;28;19970;-78